createdAt,value
2023-03-01T00:02:58.724Z,629.00
2023-03-01T00:06:58.810Z,627.00
2023-03-01T00:10:59.012Z,624.00
2023-03-01T00:14:59.095Z,630.00
2023-03-01T00:18:59.232Z,634.00
2023-03-01T00:22:59.366Z,631.00
2023-03-01T00:26:59.488Z,632.00
2023-03-01T00:30:59.590Z,630.00
2023-03-01T00:34:59.760Z,636.00
2023-03-01T00:38:59.944Z,631.00
2023-03-01T00:43:00.048Z,630.00
2023-03-01T00:47:00.208Z,633.00
2023-03-01T00:51:00.370Z,633.00
2023-03-01T00:55:00.566Z,636.00
2023-03-01T00:59:00.741Z,638.00
2023-03-01T01:03:00.860Z,634.00
2023-03-01T01:07:01.010Z,636.00
2023-03-01T01:11:01.158Z,638.00
2023-03-01T01:15:01.366Z,638.00
2023-03-01T01:19:01.546Z,641.00
2023-03-01T01:23:01.722Z,639.00
2023-03-01T01:27:01.908Z,638.00
2023-03-01T01:31:02.128Z,642.00
2023-03-01T01:35:02.261Z,635.00
2023-03-01T01:39:02.509Z,639.00
2023-03-01T01:43:02.637Z,637.00
2023-03-01T01:47:02.856Z,641.00
2023-03-01T01:51:03.084Z,647.00
2023-03-01T01:55:03.228Z,647.00
2023-03-01T01:59:03.425Z,641.00
2023-03-01T02:03:03.656Z,645.00
2023-03-01T02:07:03.807Z,641.00
2023-03-01T02:11:04.030Z,639.00
2023-03-01T02:15:04.237Z,644.00
2023-03-01T02:19:04.452Z,643.00
2023-03-01T02:23:04.667Z,644.00
2023-03-01T02:27:04.867Z,647.00
2023-03-01T02:31:05.221Z,641.00
2023-03-01T02:35:05.300Z,644.00
2023-03-01T02:39:05.528Z,645.00
2023-03-01T02:43:05.749Z,648.00
2023-03-01T02:47:05.968Z,644.00
2023-03-01T02:51:06.160Z,650.00
2023-03-01T02:55:06.108Z,651.00
2023-03-01T02:59:06.117Z,650.00
2023-03-01T03:03:06.116Z,644.00
2023-03-01T03:07:05.993Z,648.00
2023-03-01T03:11:05.982Z,648.00
2023-03-01T03:15:05.943Z,647.00
2023-03-01T03:19:05.978Z,647.00
2023-03-01T03:23:05.857Z,642.00
2023-03-01T03:27:05.840Z,645.00
2023-03-01T03:31:05.873Z,647.00
2023-03-01T03:35:05.872Z,646.00
2023-03-01T03:39:05.848Z,651.00
2023-03-01T03:43:05.802Z,655.00
2023-03-01T03:47:05.748Z,647.00
2023-03-01T03:51:05.728Z,649.00
2023-03-01T03:55:05.667Z,650.00
2023-03-01T03:59:05.701Z,646.00
2023-03-01T04:03:05.607Z,650.00
2023-03-01T04:07:05.583Z,654.00
2023-03-01T04:11:05.686Z,651.00
2023-03-01T04:15:05.649Z,651.00
2023-03-01T04:19:05.621Z,647.00
2023-03-01T04:23:05.579Z,649.00
2023-03-01T04:27:05.546Z,652.00
2023-03-01T04:31:07.391Z,656.00
2023-03-01T04:35:05.531Z,653.00
2023-03-01T04:39:05.795Z,656.00
2023-03-01T04:43:05.982Z,648.00
2023-03-01T04:47:06.126Z,651.00
2023-03-01T04:51:06.335Z,656.00
2023-03-01T04:55:06.499Z,646.00
2023-03-01T04:59:06.489Z,655.00
2023-03-01T05:03:06.603Z,647.00
2023-03-01T05:07:06.403Z,634.00
2023-03-01T05:11:06.349Z,632.00
2023-03-01T05:15:06.330Z,621.00
2023-03-01T05:19:06.312Z,620.00
2023-03-01T05:23:06.509Z,620.00
2023-03-01T05:27:06.214Z,619.00
2023-03-01T05:31:06.220Z,611.00
2023-03-01T05:35:06.171Z,616.00
2023-03-01T05:39:06.141Z,616.00
2023-03-01T05:43:06.104Z,610.00
2023-03-01T05:47:06.048Z,615.00
2023-03-01T05:51:06.000Z,618.00
2023-03-01T05:55:05.975Z,614.00
2023-03-01T05:59:05.922Z,623.00
2023-03-01T06:03:05.912Z,623.00
2023-03-01T06:07:05.850Z,624.00
2023-03-01T06:11:05.813Z,612.00
2023-03-01T06:15:05.825Z,629.00
2023-03-01T06:19:05.759Z,631.00
2023-03-01T06:23:05.720Z,635.00
2023-03-01T06:27:05.698Z,640.00
2023-03-01T06:31:05.741Z,655.00
2023-03-01T06:35:05.622Z,603.00
2023-03-01T06:39:05.592Z,630.00
2023-03-01T06:43:05.655Z,618.00
2023-03-01T06:47:05.810Z,643.00
2023-03-01T06:51:05.959Z,657.00
2023-03-01T06:55:05.941Z,644.00
2023-03-01T06:59:05.951Z,682.00
2023-03-01T07:03:06.105Z,662.00
2023-03-01T07:07:06.007Z,694.00
2023-03-01T07:11:05.979Z,699.00
2023-03-01T07:15:05.939Z,694.00
2023-03-01T07:19:05.906Z,698.00
2023-03-01T07:23:05.926Z,679.00
2023-03-01T07:27:05.798Z,683.00
2023-03-01T07:31:05.834Z,662.00
2023-03-01T07:35:05.780Z,659.00
2023-03-01T07:39:05.720Z,695.00
2023-03-01T07:43:05.707Z,822.00
2023-03-01T07:47:05.661Z,819.00
2023-03-01T07:51:05.882Z,805.00
2023-03-01T07:55:05.551Z,764.00
2023-03-01T07:59:05.589Z,745.00
2023-03-01T08:03:05.547Z,722.00
2023-03-01T08:07:05.496Z,722.00
2023-03-01T08:11:05.440Z,704.00
2023-03-01T08:15:05.384Z,690.00
2023-03-01T08:19:05.365Z,676.00
2023-03-01T08:23:05.607Z,678.00
2023-03-01T08:27:05.586Z,680.00
2023-03-01T08:31:05.512Z,647.00
2023-03-01T08:35:05.467Z,651.00
2023-03-01T08:39:05.477Z,637.00
2023-03-01T08:43:05.455Z,634.00
2023-03-01T08:47:05.429Z,638.00
2023-03-01T08:51:05.357Z,645.00
2023-03-01T08:55:05.330Z,651.00
2023-03-01T08:59:05.313Z,649.00
2023-03-01T09:03:05.263Z,661.00
2023-03-01T09:07:05.218Z,664.00
2023-03-01T09:11:05.188Z,681.00
2023-03-01T09:15:05.157Z,691.00
2023-03-01T09:19:05.102Z,690.00
2023-03-01T09:23:05.105Z,694.00
2023-03-01T09:27:05.424Z,684.00
2023-03-01T09:31:05.368Z,668.00
2023-03-01T09:35:05.452Z,672.00
2023-03-01T09:39:05.585Z,659.00
2023-03-01T09:43:05.748Z,659.00
2023-03-01T09:47:05.892Z,673.00
2023-03-01T09:51:06.070Z,670.00
2023-03-01T09:55:06.304Z,662.00
2023-03-01T09:59:06.474Z,662.00
2023-03-01T10:03:06.652Z,666.00
2023-03-01T10:07:06.900Z,692.00
2023-03-01T10:11:07.028Z,688.00
2023-03-01T10:15:07.217Z,680.00
2023-03-01T10:19:07.385Z,692.00
2023-03-01T10:23:07.517Z,664.00
2023-03-01T10:27:07.640Z,689.00
2023-03-01T10:31:07.898Z,699.00
2023-03-01T10:35:08.010Z,693.00
2023-03-01T10:39:08.122Z,695.00
2023-03-01T10:43:08.232Z,700.00
2023-03-01T10:47:08.407Z,709.00
2023-03-01T10:51:08.526Z,687.00
2023-03-01T10:55:08.691Z,690.00
2023-03-01T10:59:08.858Z,691.00
2023-03-01T11:03:08.975Z,696.00
2023-03-01T11:07:09.127Z,692.00
2023-03-01T11:11:09.284Z,708.00
2023-03-01T11:15:09.436Z,709.00
2023-03-01T11:19:09.498Z,706.00
2023-03-01T11:23:09.619Z,695.00
2023-03-01T11:27:09.715Z,693.00
2023-03-01T11:31:09.840Z,708.00
2023-03-01T11:35:09.854Z,768.00
2023-03-01T11:39:09.941Z,769.00
2023-03-01T11:43:10.032Z,824.00
2023-03-01T11:47:10.138Z,792.00
2023-03-01T11:51:10.046Z,773.00
2023-03-01T11:55:10.028Z,750.00
2023-03-01T11:59:09.992Z,738.00
2023-03-01T12:03:09.984Z,717.00
2023-03-01T12:07:10.026Z,696.00
2023-03-01T12:11:10.046Z,694.00
2023-03-01T12:15:10.121Z,694.00
2023-03-01T12:19:10.208Z,702.00
2023-03-01T12:23:20.057Z,671.00
2023-03-01T12:27:11.171Z,657.00
2023-03-01T12:31:10.185Z,652.00
2023-03-01T12:35:10.096Z,652.00
2023-03-01T12:39:10.077Z,654.00
2023-03-01T12:43:10.052Z,645.00
2023-03-01T12:47:09.984Z,639.00
2023-03-01T12:51:09.973Z,642.00
2023-03-01T12:55:09.945Z,641.00
2023-03-01T12:59:09.904Z,621.00
2023-03-01T13:03:09.857Z,636.00
2023-03-01T13:07:09.852Z,648.00
2023-03-01T13:11:09.824Z,658.00
2023-03-01T13:15:09.728Z,716.00
2023-03-01T13:19:09.688Z,743.00
2023-03-01T13:23:09.690Z,771.00
2023-03-01T13:27:09.659Z,746.00
2023-03-01T13:31:09.604Z,750.00
2023-03-01T13:35:09.603Z,761.00
2023-03-01T13:39:09.556Z,770.00
2023-03-01T13:43:09.532Z,781.00
2023-03-01T13:47:09.573Z,785.00
2023-03-01T13:51:09.477Z,776.00
2023-03-01T13:55:09.428Z,740.00
2023-03-01T13:59:09.527Z,736.00
2023-03-01T14:03:09.346Z,829.00
2023-03-01T14:07:09.344Z,823.00
2023-03-01T14:11:09.337Z,789.00
2023-03-01T14:15:09.256Z,758.00
2023-03-01T14:19:09.219Z,742.00
2023-03-01T14:23:09.198Z,718.00
2023-03-01T14:27:09.130Z,711.00
2023-03-01T14:31:09.190Z,726.00
2023-03-01T14:35:09.224Z,732.00
2023-03-01T14:39:09.388Z,727.00
2023-03-01T14:43:09.557Z,725.00
2023-03-01T14:47:09.658Z,750.00
2023-03-01T14:51:09.814Z,690.00
2023-03-01T14:55:09.950Z,666.00
2023-03-01T14:59:10.101Z,659.00
2023-03-01T15:03:10.307Z,645.00
2023-03-01T15:07:10.268Z,644.00
2023-03-01T15:11:10.268Z,645.00
2023-03-01T15:15:10.222Z,640.00
2023-03-01T15:19:10.202Z,634.00
2023-03-01T15:23:10.109Z,640.00
2023-03-01T15:27:10.112Z,634.00
2023-03-01T15:31:10.090Z,650.00
2023-03-01T15:35:10.035Z,641.00
2023-03-01T15:39:09.960Z,641.00
2023-03-01T15:43:09.990Z,642.00
2023-03-01T15:47:09.908Z,641.00
2023-03-01T15:51:09.863Z,638.00
2023-03-01T15:55:09.994Z,635.00
2023-03-01T15:59:10.160Z,640.00
2023-03-01T16:03:10.418Z,637.00
2023-03-01T16:07:10.479Z,637.00
2023-03-01T16:11:10.551Z,635.00
2023-03-01T16:15:10.626Z,638.00
2023-03-01T16:19:10.608Z,639.00
2023-03-01T16:23:10.663Z,632.00
2023-03-01T16:27:10.677Z,631.00
2023-03-01T16:31:10.700Z,629.00
2023-03-01T16:35:10.680Z,626.00
2023-03-01T16:39:10.679Z,631.00
2023-03-01T16:43:10.601Z,633.00
2023-03-01T16:47:10.636Z,627.00
2023-03-01T16:51:10.643Z,629.00
2023-03-01T16:55:10.682Z,625.00
2023-03-01T16:59:10.682Z,623.00
2023-03-01T17:03:10.745Z,622.00
2023-03-01T17:07:10.720Z,620.00
2023-03-01T17:11:10.754Z,623.00
2023-03-01T17:15:10.806Z,619.00
2023-03-01T17:19:10.854Z,622.00
2023-03-01T17:23:10.890Z,613.00
2023-03-01T17:27:10.969Z,615.00
2023-03-01T17:31:11.053Z,609.00
2023-03-01T17:35:11.087Z,609.00
2023-03-01T17:39:11.207Z,604.00
2023-03-01T17:43:11.479Z,605.00
2023-03-01T17:47:11.372Z,603.00
2023-03-01T17:51:11.522Z,595.00
2023-03-01T17:55:11.637Z,607.00
2023-03-01T17:59:11.727Z,598.00
2023-03-01T18:03:11.904Z,604.00
2023-03-01T18:07:12.028Z,598.00
2023-03-01T18:11:12.118Z,599.00
2023-03-01T18:15:12.277Z,594.00
2023-03-01T18:19:12.419Z,592.00
2023-03-01T18:23:12.584Z,593.00
2023-03-01T18:27:12.712Z,591.00
2023-03-01T18:31:12.994Z,587.00
2023-03-01T18:35:13.039Z,587.00
2023-03-01T18:39:13.237Z,579.00
2023-03-01T18:43:13.356Z,587.00
2023-03-01T18:47:14.084Z,577.00
2023-03-01T18:51:13.709Z,579.00
2023-03-01T18:55:13.850Z,578.00
2023-03-01T18:59:14.051Z,573.00
2023-03-01T19:03:14.259Z,576.00
2023-03-01T19:07:14.472Z,574.00
2023-03-01T19:11:14.675Z,571.00
2023-03-01T19:15:14.642Z,568.00
2023-03-01T19:19:14.633Z,574.00
2023-03-01T19:23:14.578Z,585.00
2023-03-01T19:27:14.542Z,570.00
2023-03-01T19:31:14.610Z,566.00
2023-03-01T19:35:14.475Z,554.00
2023-03-01T19:39:14.472Z,547.00
2023-03-01T19:43:14.390Z,533.00
2023-03-01T19:47:14.363Z,529.00
2023-03-01T19:51:14.359Z,530.00
2023-03-01T19:55:14.283Z,523.00
2023-03-01T19:59:14.248Z,526.00
2023-03-01T20:03:14.271Z,526.00
2023-03-01T20:07:14.157Z,526.00
2023-03-01T20:11:14.166Z,514.00
2023-03-01T20:15:14.112Z,518.00
2023-03-01T20:19:14.121Z,520.00
2023-03-01T20:23:14.050Z,520.00
2023-03-01T20:27:13.996Z,520.00
2023-03-01T20:31:13.997Z,513.00
2023-03-01T20:35:13.948Z,514.00
2023-03-01T20:39:13.884Z,515.00
2023-03-01T20:43:13.861Z,517.00
2023-03-01T20:47:13.826Z,512.00
2023-03-01T20:51:13.801Z,516.00
2023-03-01T20:55:13.751Z,513.00
2023-03-01T20:59:13.736Z,515.00
2023-03-01T21:03:13.740Z,514.00
2023-03-01T21:07:13.723Z,515.00
2023-03-01T21:11:13.762Z,509.00
2023-03-01T21:15:27.017Z,510.00
2023-03-01T21:19:14.775Z,514.00
2023-03-01T21:23:13.709Z,513.00
2023-03-01T21:27:13.677Z,517.00
2023-03-01T21:31:13.763Z,511.00
2023-03-01T21:35:13.626Z,514.00
2023-03-01T21:39:13.573Z,513.00
2023-03-01T21:43:13.563Z,515.00
2023-03-01T21:47:13.702Z,516.00
2023-03-01T21:51:13.762Z,519.00
2023-03-01T21:55:13.847Z,517.00
2023-03-01T21:59:13.935Z,515.00
2023-03-01T22:03:14.054Z,514.00
2023-03-01T22:07:14.099Z,521.00
2023-03-01T22:11:14.160Z,516.00
2023-03-01T22:15:14.245Z,511.00
2023-03-01T22:19:14.382Z,515.00
2023-03-01T22:23:14.497Z,533.00
2023-03-01T22:27:14.606Z,528.00
2023-03-01T22:31:14.797Z,528.00
2023-03-01T22:35:14.851Z,524.00
2023-03-01T22:39:14.918Z,519.00
2023-03-01T22:43:15.051Z,527.00
2023-03-01T22:47:15.220Z,530.00
2023-03-01T22:51:15.254Z,532.00
2023-03-01T22:55:15.416Z,528.00
2023-03-01T22:59:15.500Z,532.00
2023-03-01T23:03:15.821Z,524.00
2023-03-01T23:07:15.734Z,528.00
2023-03-01T23:11:15.881Z,531.00
2023-03-01T23:15:16.025Z,530.00
2023-03-01T23:19:16.169Z,528.00
2023-03-01T23:23:16.244Z,529.00
2023-03-01T23:27:16.372Z,529.00
2023-03-01T23:31:16.586Z,528.00
2023-03-01T23:35:16.636Z,536.00
2023-03-01T23:39:16.831Z,534.00
2023-03-01T23:43:16.889Z,531.00
2023-03-01T23:47:17.033Z,532.00
2023-03-01T23:51:17.128Z,531.00
2023-03-01T23:55:17.274Z,531.00
2023-03-01T23:59:17.380Z,528.00
